Time;durP1;ratioP1;P1;durP2;ratioP2;P2;SDS_P1;SDS_P2;PMS_P1;PMS_P2;Temp;Humidity;BMP_temperature;BMP_pressure;BME280_temperature;BME280_humidity;BME280_pressure;Samples;Min_cycle;Max_cycle;Signal;HPM_P1;HPM_P2
2023/12/26 00:01:57;;;;;;;0.40;0.40;;;;;;;9.03;100.00;99621.47;5062617;28;20223;-74
2023/12/26 00:04:23;;;;;;;0.83;0.43;;;;;;;9.11;100.00;99619.28;5073578;28;20179;-74
2023/12/26 00:06:48;;;;;;;0.50;0.50;;;;;;;9.05;100.00;99611.94;5068453;28;20177;-73
2023/12/26 00:09:16;;;;;;;0.60;0.60;;;;;;;9.02;100.00;99620.63;5070774;28;20189;-74
2023/12/26 00:11:42;;;;;;;0.50;0.50;;;;;;;9.16;100.00;99621.59;5062329;28;20215;-77
2023/12/26 00:14:08;;;;;;;0.37;0.37;;;;;;;9.27;100.00;99615.88;5070539;28;20177;-73
2023/12/26 00:16:33;;;;;;;0.40;0.40;;;;;;;9.24;100.00;99614.31;5054107;28;20191;-77
2023/12/26 00:18:59;;;;;;;0.67;0.60;;;;;;;9.18;100.00;99619.78;5055305;28;20221;-81
2023/12/26 00:21:24;;;;;;;0.33;0.33;;;;;;;9.18;100.00;99614.66;5047264;28;20228;-83
2023/12/26 00:23:50;;;;;;;0.93;0.50;;;;;;;9.24;100.00;99608.31;5047976;28;20205;-74
2023/12/26 00:26:15;;;;;;;0.47;0.47;;;;;;;9.24;100.00;99606.59;5054429;28;20751;-75
2023/12/26 00:28:40;;;;;;;0.47;0.47;;;;;;;9.22;100.00;99597.34;5054450;28;20205;-73
2023/12/26 00:31:06;;;;;;;0.40;0.40;;;;;;;9.29;100.00;99596.06;5023490;28;20683;-79
2023/12/26 00:33:31;;;;;;;0.50;0.50;;;;;;;9.29;100.00;99606.31;5068137;28;20247;-79
2023/12/26 00:35:58;;;;;;;0.40;0.40;;;;;;;9.28;100.00;99590.09;5073101;28;20181;-81
2023/12/26 00:38:23;;;;;;;0.73;0.50;;;;;;;9.18;100.00;99594.94;5072677;28;20193;-81
2023/12/26 00:40:49;;;;;;;1.13;0.43;;;;;;;9.18;100.00;99592.38;5067027;28;20229;-75
2023/12/26 00:43:14;;;;;;;0.63;0.60;;;;;;;9.19;100.00;99593.19;5070579;28;20179;-76
2023/12/26 00:45:39;;;;;;;2.10;0.50;;;;;;;9.07;100.00;99592.16;5066762;28;20741;-70
2023/12/26 00:48:05;;;;;;;0.60;0.57;;;;;;;9.12;100.00;99594.47;5071544;28;20181;-73
2023/12/26 00:50:31;;;;;;;0.53;0.43;;;;;;;9.22;100.00;99589.66;5062797;28;20313;-72
2023/12/26 00:52:56;;;;;;;0.40;0.40;;;;;;;9.16;100.00;99588.25;5072317;28;20188;-73
2023/12/26 00:55:23;;;;;;;0.67;0.30;;;;;;;9.12;100.00;99589.34;5065457;28;20185;-74
2023/12/26 00:57:49;;;;;;;0.50;0.50;;;;;;;9.09;100.00;99590.34;5061812;28;20548;-75
2023/12/26 01:00:14;;;;;;;0.40;0.40;;;;;;;9.12;100.00;99587.59;5061722;28;20223;-80
2023/12/26 01:02:40;;;;;;;0.30;0.30;;;;;;;9.07;100.00;99592.16;5067552;28;20216;-80
2023/12/26 01:05:05;;;;;;;0.50;0.50;;;;;;;9.09;100.00;99582.66;5067412;28;20189;-73
2023/12/26 01:07:30;;;;;;;0.53;0.50;;;;;;;9.16;100.00;99590.81;5072384;28;20169;-73
2023/12/26 01:09:56;;;;;;;0.40;0.40;;;;;;;9.28;100.00;99581.56;5070824;28;20227;-72
2023/12/26 01:12:21;;;;;;;0.57;0.57;;;;;;;9.14;100.00;99584.94;5078279;28;20212;-72
2023/12/26 01:14:46;;;;;;;0.33;0.33;;;;;;;9.07;100.00;99586.19;5070070;28;20180;-75
2023/12/26 01:17:12;;;;;;;0.40;0.40;;;;;;;9.00;100.00;99588.28;5071668;28;20168;-79
2023/12/26 01:19:37;;;;;;;0.30;0.30;;;;;;;9.07;100.00;99593.88;5069406;28;20232;-79
2023/12/26 01:22:03;;;;;;;0.40;0.40;;;;;;;9.12;100.00;99600.41;5077684;28;20226;-81
2023/12/26 01:24:28;;;;;;;0.40;0.40;;;;;;;8.99;100.00;99589.19;5057713;28;20197;-83
2023/12/26 01:26:53;;;;;;;0.87;0.40;;;;;;;9.11;100.00;99592.81;5071415;28;20176;-74
2023/12/26 01:29:19;;;;;;;0.40;0.40;;;;;;;9.23;100.00;99594.69;5062380;28;20653;-77
2023/12/26 01:31:44;;;;;;;0.70;0.60;;;;;;;9.22;100.00;99599.91;5051664;28;20221;-74
2023/12/26 01:34:09;;;;;;;1.03;0.50;;;;;;;9.27;100.00;99606.41;5056145;28;20193;-74
2023/12/26 01:36:35;;;;;;;0.60;0.60;;;;;;;9.23;100.00;99607.50;5071879;28;20236;-69
2023/12/26 01:39:00;;;;;;;0.40;0.40;;;;;;;9.27;100.00;99608.97;5049476;28;20236;-72
2023/12/26 01:41:26;;;;;;;0.83;0.50;;;;;;;9.33;100.00;99615.53;5045645;28;20224;-71
2023/12/26 01:43:51;;;;;;;0.50;0.50;;;;;;;9.18;100.00;99618.03;5047775;28;20205;-71
2023/12/26 01:46:17;;;;;;;0.40;0.40;;;;;;;9.16;100.00;99629.31;5060022;28;20485;-73
2023/12/26 01:48:49;;;;;;;0.40;0.40;;;;;;;9.09;100.00;99633.97;5056353;28;20177;-77
2023/12/26 01:51:16;;;;;;;0.60;0.50;;;;;;;9.08;100.00;99642.56;5051129;28;20224;-72
2023/12/26 01:53:42;;;;;;;0.60;0.53;;;;;;;9.18;100.00;99636.00;5059671;28;20185;-73
2023/12/26 01:56:08;;;;;;;0.60;0.60;;;;;;;9.18;100.00;99637.75;5067058;28;20228;-75
2023/12/26 01:58:35;;;;;;;1.00;0.53;;;;;;;9.18;100.00;99625.72;5059146;28;20552;-76
2023/12/26 02:01:02;;;;;;;1.00;0.60;;;;;;;9.13;100.00;99616.63;5058883;28;20220;-74
2023/12/26 02:03:27;;;;;;;4.83;0.80;;;;;;;9.11;100.00;99632.13;5050906;28;20259;-73
2023/12/26 02:05:52;;;;;;;2.23;0.83;;;;;;;9.08;100.00;99626.31;5058591;28;20257;-71
2023/12/26 02:08:19;;;;;;;1.53;1.00;;;;;;;9.15;100.00;99637.91;5058615;28;20180;-70
2023/12/26 02:10:44;;;;;;;3.03;0.80;;;;;;;9.19;100.00;99627.38;5057706;28;20228;-71
2023/12/26 02:13:10;;;;;;;1.73;0.80;;;;;;;9.18;100.00;99633.44;5062818;28;20219;-71
2023/12/26 02:15:35;;;;;;;2.00;1.30;;;;;;;9.22;100.00;99633.28;5054928;28;20181;-72
2023/12/26 02:18:01;;;;;;;3.20;1.00;;;;;;;9.30;100.00;99637.06;5058903;28;20173;-70
2023/12/26 02:20:27;;;;;;;2.80;1.00;;;;;;;9.32;100.00;99624.13;5059173;28;20229;-72
2023/12/26 02:22:52;;;;;;;2.30;1.00;;;;;;;9.23;100.00;99633.19;5052836;28;20181;-71
2023/12/26 02:25:19;;;;;;;1.97;1.10;;;;;;;9.19;100.00;99629.97;5065930;28;20188;-71
2023/12/26 02:27:45;;;;;;;3.57;1.37;;;;;;;9.21;100.00;99622.16;5058504;28;20177;-72
2023/12/26 02:30:11;;;;;;;5.80;1.23;;;;;;;9.19;100.00;99627.38;5049617;28;20181;-71
2023/12/26 02:32:39;;;;;;;3.00;1.10;;;;;;;9.30;100.00;99625.94;5065408;28;20192;-70
2023/12/26 02:35:05;;;;;;;2.07;1.17;;;;;;;9.34;100.00;99625.69;5051157;28;20173;-71
2023/12/26 02:37:31;;;;;;;1.87;1.10;;;;;;;9.18;100.00;99614.66;5049266;28;20184;-70
2023/12/26 02:39:57;;;;;;;2.03;1.47;;;;;;;9.31;100.00;99610.44;5048493;28;20197;-70
2023/12/26 02:42:24;;;;;;;2.07;1.50;;;;;;;9.30;100.00;99620.81;5039237;28;22319;-70
2023/12/26 02:44:50;;;;;;;4.00;1.40;;;;;;;9.34;100.00;99612.00;5049817;28;20208;-70
2023/12/26 02:47:15;;;;;;;4.47;1.27;;;;;;;9.34;100.00;99625.69;5050509;28;20189;-73
2023/12/26 02:49:41;;;;;;;2.83;1.33;;;;;;;9.26;100.00;99619.34;5051608;28;20185;-70
2023/12/26 02:52:06;;;;;;;4.33;1.37;;;;;;;9.30;100.00;99616.53;5053944;28;20217;-73
2023/12/26 02:54:31;;;;;;;4.27;1.40;;;;;;;9.17;100.00;99613.81;5044964;28;20181;-70
2023/12/26 02:56:57;;;;;;;2.37;1.10;;;;;;;9.23;100.00;99625.47;5052383;28;20189;-70
2023/12/26 02:59:22;;;;;;;4.97;1.43;;;;;;;9.18;100.00;99620.59;5051560;28;20201;-70
2023/12/26 03:01:50;;;;;;;3.27;1.20;;;;;;;9.11;100.00;99609.03;5055419;28;20243;-71
2023/12/26 03:04:16;;;;;;;3.03;1.30;;;;;;;9.16;100.00;99611.34;5050055;28;20162;-71
2023/12/26 03:06:41;;;;;;;3.63;1.50;;;;;;;9.09;100.00;99608.31;5051193;28;20190;-71
2023/12/26 03:09:07;;;;;;;4.37;1.60;;;;;;;8.92;100.00;99611.81;5050071;28;20185;-70
2023/12/26 03:11:33;;;;;;;3.73;1.57;;;;;;;8.92;100.00;99601.53;5042910;28;20251;-70
2023/12/26 03:13:58;;;;;;;5.20;1.80;;;;;;;8.78;100.00;99606.59;5055459;28;20290;-70
2023/12/26 03:16:24;;;;;;;5.00;1.97;;;;;;;8.76;100.00;99608.41;5052066;28;20579;-72
2023/12/26 03:18:49;;;;;;;3.70;1.43;;;;;;;8.84;100.00;99617.38;5051298;28;20719;-70
2023/12/26 03:21:15;;;;;;;2.20;1.57;;;;;;;8.80;100.00;99615.03;5012023;28;1100750;-71
2023/12/26 03:23:40;;;;;;;2.67;1.47;;;;;;;8.78;100.00;99616.84;5059169;28;20265;-71
2023/12/26 03:26:07;;;;;;;4.17;1.83;;;;;;;8.87;100.00;99611.22;5053084;28;20648;-71
2023/12/26 03:28:32;;;;;;;3.53;1.77;;;;;;;8.99;100.00;99614.84;5051044;28;20655;-71
2023/12/26 03:30:58;;;;;;;3.37;1.30;;;;;;;9.07;100.00;99619.53;5043886;28;20232;-71
2023/12/26 03:33:23;;;;;;;6.23;2.00;;;;;;;9.11;100.00;99619.28;5059291;28;20647;-70
2023/12/26 03:35:48;;;;;;;7.03;2.00;;;;;;;9.09;100.00;99622.84;5051155;28;20185;-71
2023/12/26 03:38:15;;;;;;;4.03;1.30;;;;;;;9.08;100.00;99622.03;5049391;28;20627;-70
2023/12/26 03:40:40;;;;;;;5.37;1.90;;;;;;;9.25;100.00;99628.75;5042617;28;20220;-71
2023/12/26 03:43:06;;;;;;;5.77;1.70;;;;;;;9.15;100.00;99619.94;5061662;28;20587;-71
2023/12/26 03:45:31;;;;;;;6.27;1.80;;;;;;;9.09;100.00;99616.00;5050536;28;20277;-70
2023/12/26 03:47:56;;;;;;;4.10;1.60;;;;;;;9.16;100.00;99611.34;5050667;28;20281;-70
2023/12/26 03:50:22;;;;;;;4.30;1.63;;;;;;;9.13;100.00;99614.91;5042103;28;20275;-70
2023/12/26 03:52:47;;;;;;;6.73;1.90;;;;;;;9.19;100.00;99629.13;5063920;28;20189;-71
2023/12/26 03:55:14;;;;;;;7.10;1.90;;;;;;;9.21;100.00;99624.72;5049938;28;20624;-71
2023/12/26 03:57:41;;;;;;;4.53;1.73;;;;;;;9.23;100.00;99628.03;5062881;28;20239;-71
2023/12/26 04:00:08;;;;;;;6.67;1.63;;;;;;;9.24;100.00;99634.00;5055539;28;20208;-71
2023/12/26 04:02:34;;;;;;;8.13;1.87;;;;;;;9.17;100.00;99625.81;5085158;28;20181;-70
2023/12/26 04:04:59;;;;;;;6.00;2.00;;;;;;;9.35;100.00;99616.25;5070249;28;20204;-72
2023/12/26 04:07:25;;;;;;;6.10;1.97;;;;;;;9.10;100.00;99622.75;5068765;28;20175;-71
2023/12/26 04:09:50;;;;;;;5.27;2.30;;;;;;;9.16;100.00;99616.47;5069765;28;20185;-70
2023/12/26 04:12:15;;;;;;;3.97;1.83;;;;;;;9.05;100.00;99622.19;5075341;28;20222;-70
2023/12/26 04:14:41;;;;;;;4.27;2.33;;;;;;;9.05;100.00;99622.19;5068380;28;20271;-70
2023/12/26 04:17:06;;;;;;;4.67;1.63;;;;;;;8.97;100.00;99614.13;5068788;28;20169;-70
2023/12/26 04:19:32;;;;;;;4.57;1.80;;;;;;;8.93;100.00;99628.00;5070710;28;20200;-70
2023/12/26 04:21:57;;;;;;;5.30;2.17;;;;;;;9.00;100.00;99621.63;5078078;28;20220;-70
2023/12/26 04:24:22;;;;;;;4.40;1.60;;;;;;;9.08;100.00;99634.88;5071088;28;20227;-69
2023/12/26 04:26:47;;;;;;;7.63;2.20;;;;;;;8.97;100.00;99632.88;5073167;28;20298;-69
2023/12/26 04:29:13;;;;;;;7.50;1.77;;;;;;;9.01;100.00;99629.22;5072398;28;20180;-70
2023/12/26 04:31:39;;;;;;;8.27;1.90;;;;;;;9.08;100.00;99628.88;5048027;27;20228;-69
2023/12/26 04:34:04;;;;;;;6.47;2.80;;;;;;;9.09;100.00;99635.69;5055064;28;20189;-72
2023/12/26 04:36:34;;;;;;;3.67;2.00;;;;;;;9.13;100.00;99634.59;5065522;28;20177;-70
2023/12/26 04:38:59;;;;;;;9.23;1.90;;;;;;;9.07;100.00;99635.78;5052629;28;20236;-72
2023/12/26 04:41:24;;;;;;;5.60;2.00;;;;;;;9.09;100.00;99644.22;5054439;28;20240;-70
2023/12/26 04:43:50;;;;;;;10.07;2.07;;;;;;;9.00;100.00;99639.59;5072150;28;20181;-70
2023/12/26 04:46:21;;;;;;;6.10;1.83;;;;;;;8.97;100.00;99647.47;5072480;28;20280;-70
2023/12/26 04:48:47;;;;;;;10.37;3.07;;;;;;;9.02;100.00;99641.16;5072357;28;20197;-70
2023/12/26 04:51:18;;;;;;;4.23;1.83;;;;;;;8.99;100.00;99638.78;5052406;28;20671;-70
2023/12/26 04:53:47;;;;;;;7.30;2.03;;;;;;;9.01;100.00;99647.19;5054225;28;20219;-70
2023/12/26 04:56:17;;;;;;;9.67;2.50;;;;;;;8.95;100.00;99655.22;5068926;28;20184;-70
2023/12/26 04:58:47;;;;;;;8.80;2.20;;;;;;;8.97;100.00;99668.00;5069147;28;20200;-70
2023/12/26 05:01:12;;;;;;;7.70;1.87;;;;;;;8.90;100.00;99664.91;5061650;28;20220;-70
2023/12/26 05:03:37;;;;;;;3.77;1.70;;;;;;;8.78;100.00;99668.16;5052277;28;20230;-71
2023/12/26 05:06:04;;;;;;;5.83;1.93;;;;;;;8.75;100.00;99671.72;5053808;28;20182;-71
2023/12/26 05:08:29;;;;;;;6.53;2.03;;;;;;;8.74;100.00;99675.16;5053474;28;20177;-72
2023/12/26 05:10:55;;;;;;;3.83;1.90;;;;;;;8.82;100.00;99664.50;5050490;28;20240;-71
2023/12/26 05:13:20;;;;;;;7.43;2.17;;;;;;;8.75;100.00;99664.00;5061938;28;20177;-71
2023/12/26 05:15:46;;;;;;;8.07;1.70;;;;;;;8.63;100.00;99672.34;5053799;28;20204;-71
2023/12/26 05:18:12;;;;;;;6.10;2.43;;;;;;;8.63;100.00;99675.75;5052614;28;20690;-71
2023/12/26 05:20:38;;;;;;;6.10;1.70;;;;;;;8.61;100.00;99689.56;5047120;28;20237;-71
2023/12/26 05:23:03;;;;;;;5.07;2.13;;;;;;;8.64;100.00;99687.66;5064367;28;20180;-71
2023/12/26 05:25:29;;;;;;;8.90;2.80;;;;;;;8.54;100.00;99687.31;5053414;28;20177;-71
2023/12/26 05:27:54;;;;;;;6.97;2.50;;;;;;;8.49;100.00;99691.84;5053775;28;20265;-73
2023/12/26 05:30:19;;;;;;;5.57;2.00;;;;;;;8.41;100.00;99701.66;5045013;28;20196;-71
2023/12/26 05:32:45;;;;;;;5.07;1.67;;;;;;;8.39;100.00;99699.16;5054455;28;20181;-71
2023/12/26 05:35:10;;;;;;;5.30;2.00;;;;;;;8.43;100.00;99697.28;5072623;28;20287;-71
2023/12/26 05:37:35;;;;;;;12.40;2.13;;;;;;;8.47;100.00;99701.38;5070365;28;20276;-71
2023/12/26 05:40:00;;;;;;;7.20;1.83;;;;;;;8.44;100.00;99700.69;5070818;28;20192;-71
2023/12/26 05:42:26;;;;;;;6.73;2.63;;;;;;;8.41;100.00;99701.66;5075860;28;20229;-71
2023/12/26 05:44:51;;;;;;;6.70;1.93;;;;;;;8.36;100.00;99713.88;5072403;28;20193;-71
2023/12/26 05:47:17;;;;;;;5.47;1.47;;;;;;;8.39;100.00;99713.72;5071233;28;20173;-70
2023/12/26 05:49:42;;;;;;;5.33;1.83;;;;;;;8.39;100.00;99718.84;5071351;28;20172;-71
2023/12/26 05:52:08;;;;;;;4.70;1.73;;;;;;;8.32;100.00;99715.78;5063994;28;20637;-70
2023/12/26 05:54:33;;;;;;;7.13;1.90;;;;;;;8.35;100.00;99707.94;5072121;28;20173;-70
2023/12/26 05:56:58;;;;;;;6.40;2.13;;;;;;;8.32;100.00;99720.91;5071147;28;20181;-70
2023/12/26 05:59:24;;;;;;;5.30;1.70;;;;;;;8.28;100.00;99723.69;5071999;28;20216;-70
2023/12/26 06:01:49;;;;;;;7.53;1.80;;;;;;;8.32;100.00;99722.63;5073566;28;20223;-71
2023/12/26 06:04:14;;;;;;;4.43;2.00;;;;;;;8.31;100.00;99720.97;5074014;28;20640;-71
2023/12/26 06:06:40;;;;;;;4.20;2.00;;;;;;;8.39;100.00;99719.66;5069512;28;20276;-70
2023/12/26 06:09:05;;;;;;;5.50;1.73;;;;;;;8.40;100.00;99736.72;5072133;28;20193;-70
2023/12/26 06:11:30;;;;;;;6.93;1.90;;;;;;;8.43;100.00;99734.91;5062437;28;20306;-70
2023/12/26 06:13:56;;;;;;;4.57;2.13;;;;;;;8.35;100.00;99725.06;5070298;28;20184;-70
2023/12/26 06:16:21;;;;;;;5.77;1.80;;;;;;;8.32;100.00;99738.00;5071052;28;20177;-82
2023/12/26 06:18:47;;;;;;;7.80;1.80;;;;;;;8.32;100.00;99731.16;5072463;28;20304;-70
2023/12/26 06:21:12;;;;;;;5.77;1.83;;;;;;;8.25;100.00;99737.50;5069246;27;20232;-70
2023/12/26 06:23:37;;;;;;;4.27;1.70;;;;;;;8.38;100.00;99747.94;5077823;28;20181;-70
2023/12/26 06:26:03;;;;;;;6.90;2.20;;;;;;;8.49;100.00;99753.38;5070526;28;20218;-72
2023/12/26 06:28:28;;;;;;;7.33;2.43;;;;;;;8.61;100.00;99758.78;5069546;28;20172;-70
2023/12/26 06:30:53;;;;;;;4.77;2.00;;;;;;;8.53;100.00;99759.19;5065707;28;20306;-70
2023/12/26 06:33:19;;;;;;;6.43;2.07;;;;;;;8.55;100.00;99775.31;5060742;28;20189;-70
2023/12/26 06:35:45;;;;;;;6.23;1.50;;;;;;;8.59;100.00;99778.56;5052292;28;20196;-72
2023/12/26 06:38:13;;;;;;;9.13;2.53;;;;;;;8.54;100.00;99768.53;5051459;28;20610;-71
2023/12/26 06:40:42;;;;;;;3.13;1.63;;;;;;;8.54;100.00;99774.47;5045698;28;20223;-70
2023/12/26 06:43:10;;;;;;;6.43;2.60;;;;;;;8.59;100.00;99776.00;5050177;28;20628;-70
2023/12/26 06:45:36;;;;;;;7.53;1.90;;;;;;;8.58;100.00;99787.16;5050329;28;20706;-71
2023/12/26 06:48:01;;;;;;;3.57;1.90;;;;;;;8.61;100.00;99790.38;5049993;28;20195;-71
2023/12/26 06:50:27;;;;;;;5.33;2.10;;;;;;;8.64;100.00;99795.34;5044283;28;20220;-70
2023/12/26 06:52:52;;;;;;;6.70;2.20;;;;;;;8.66;100.00;99795.28;5064084;28;20227;-70
2023/12/26 06:55:17;;;;;;;5.83;1.83;;;;;;;8.60;100.00;99783.59;5052507;28;20220;-70
2023/12/26 06:57:43;;;;;;;5.97;1.77;;;;;;;8.59;100.00;99796.50;5052066;28;20592;-70
2023/12/26 07:00:08;;;;;;;6.80;1.90;;;;;;;8.56;100.00;99797.50;5041552;28;20231;-70
2023/12/26 07:02:34;;;;;;;11.87;2.37;;;;;;;8.56;100.00;99798.31;5066032;28;21017;-70
2023/12/26 07:04:59;;;;;;;5.37;2.03;;;;;;;8.68;100.00;99806.28;5052484;28;20189;-71
2023/12/26 07:07:25;;;;;;;5.47;1.90;;;;;;;8.60;100.00;99803.28;5052349;28;20189;-70
2023/12/26 07:09:50;;;;;;;7.00;2.10;;;;;;;8.63;100.00;99808.25;5054358;28;20189;-72
2023/12/26 07:12:16;;;;;;;4.87;1.70;;;;;;;8.70;100.00;99814.72;5056798;28;20220;-70
2023/12/26 07:14:42;;;;;;;5.03;1.80;;;;;;;8.69;100.00;99820.75;5054107;28;20185;-70
2023/12/26 07:17:07;;;;;;;5.43;2.03;;;;;;;8.65;100.00;99814.97;5050843;28;20673;-70
2023/12/26 07:19:32;;;;;;;6.30;2.23;;;;;;;8.72;100.00;99821.44;5051738;28;20315;-71
2023/12/26 07:21:58;;;;;;;5.07;1.93;;;;;;;8.76;100.00;99839.22;5055796;28;20231;-70
2023/12/26 07:24:23;;;;;;;5.73;1.80;;;;;;;8.75;100.00;99845.28;5054567;28;20181;-71
2023/12/26 07:26:48;;;;;;;3.10;1.60;;;;;;;8.71;100.00;99853.09;5052139;28;20240;-71
2023/12/26 07:29:14;;;;;;;4.63;1.57;;;;;;;8.81;100.00;99852.66;5052259;28;20208;-73
2023/12/26 07:31:39;;;;;;;5.07;1.90;;;;;;;8.72;100.00;99857.34;5053708;28;20228;-72
2023/12/26 07:34:08;;;;;;;8.67;1.50;;;;;;;8.72;100.00;99849.63;5067173;28;20230;-70
2023/12/26 07:36:34;;;;;;;5.87;1.97;;;;;;;8.81;100.00;99862.91;5050757;28;20183;-70
2023/12/26 07:38:59;;;;;;;3.47;1.60;;;;;;;8.69;100.00;99872.03;5051169;28;20216;-70
2023/12/26 07:41:24;;;;;;;4.87;2.13;;;;;;;8.86;100.00;99869.44;5050867;28;20241;-73
2023/12/26 07:43:51;;;;;;;4.63;1.50;;;;;;;8.82;100.00;99873.09;5050935;28;20197;-73
2023/12/26 07:46:16;;;;;;;6.20;2.00;;;;;;;8.80;100.00;99877.47;5054771;28;20629;-70
2023/12/26 07:48:42;;;;;;;4.27;1.77;;;;;;;8.79;100.00;99888.63;5056325;28;20186;-70
2023/12/26 07:51:10;;;;;;;3.40;1.43;;;;;;;8.79;100.00;99888.63;5052409;28;20205;-71
2023/12/26 07:53:35;;;;;;;3.60;1.50;;;;;;;8.88;100.00;99884.75;5059089;28;20644;-71
2023/12/26 07:56:01;;;;;;;4.50;1.47;;;;;;;8.89;100.00;99891.53;5062255;28;20253;-70
2023/12/26 07:58:26;;;;;;;5.50;2.33;;;;;;;9.02;100.00;99896.91;5060592;28;20287;-70
2023/12/26 08:00:52;;;;;;;6.63;1.90;;;;;;;9.01;100.00;99892.66;5065761;27;20227;-70
2023/12/26 08:03:17;;;;;;;11.80;3.63;;;;;;;8.89;100.00;99896.69;5068739;28;20231;-71
2023/12/26 08:05:42;;;;;;;8.63;3.43;;;;;;;8.93;100.00;99905.03;5067941;28;20183;-69
2023/12/26 08:08:09;;;;;;;13.33;4.53;;;;;;;8.99;100.00;99904.75;5062777;28;20532;-69
2023/12/26 08:10:35;;;;;;;3.50;2.50;;;;;;;9.09;100.00;99913.66;5059548;28;20282;-71
2023/12/26 08:13:00;;;;;;;5.37;1.60;;;;;;;9.15;100.00;99917.59;5056800;28;20650;-70
2023/12/26 08:15:26;;;;;;;4.93;1.80;;;;;;;9.02;100.00;99918.25;5061515;28;20652;-70
2023/12/26 08:17:51;;;;;;;4.83;2.27;;;;;;;9.05;100.00;99912.13;5059260;28;20186;-70
2023/12/26 08:20:17;;;;;;;5.53;1.63;;;;;;;9.07;100.00;99917.16;5054243;28;20220;-69
2023/12/26 08:22:42;;;;;;;5.07;1.97;;;;;;;9.08;100.00;99924.81;5068130;28;20268;-71
2023/12/26 08:25:09;;;;;;;2.43;1.80;;;;;;;9.06;100.00;99912.97;5068938;28;20180;-70
2023/12/26 08:27:34;;;;;;;3.93;1.70;;;;;;;9.13;100.00;99911.72;5055450;28;20185;-72
2023/12/26 08:30:00;;;;;;;3.27;1.63;;;;;;;9.25;100.00;99923.09;5055858;28;20632;-71
2023/12/26 08:32:25;;;;;;;5.83;2.00;;;;;;;9.25;100.00;99918.78;5014552;28;20739;-71
2023/12/26 08:34:50;;;;;;;6.20;2.00;;;;;;;9.16;100.00;99932.91;5058026;28;20277;-71
2023/12/26 08:37:16;;;;;;;2.70;1.70;;;;;;;9.09;100.00;99934.16;5055447;28;20181;-71
2023/12/26 08:39:41;;;;;;;4.47;1.87;;;;;;;9.12;100.00;99928.88;5061035;28;20213;-69
2023/12/26 08:42:07;;;;;;;2.73;1.53;;;;;;;9.17;100.00;99929.44;5056818;28;20695;-67
2023/12/26 08:44:32;;;;;;;5.47;1.80;;;;;;;9.15;100.00;99939.00;5058823;28;20225;-73
2023/12/26 08:47:03;;;;;;;4.37;1.60;;;;;;;9.02;100.00;99950.78;5054500;28;20189;-70
2023/12/26 08:49:28;;;;;;;5.63;1.57;;;;;;;9.01;100.00;99957.63;5053491;28;20174;-70
2023/12/26 08:51:54;;;;;;;3.90;1.50;;;;;;;9.11;100.00;99965.69;5043712;28;20235;-72
2023/12/26 08:54:20;;;;;;;3.40;1.50;;;;;;;9.02;100.00;99969.56;5057118;28;20215;-71
2023/12/26 08:56:46;;;;;;;2.27;1.33;;;;;;;9.11;100.00;99977.69;5068593;28;20372;-75
2023/12/26 08:59:11;;;;;;;5.90;1.53;;;;;;;9.18;100.00;99976.50;5055580;28;20288;-75
2023/12/26 09:01:36;;;;;;;5.67;1.57;;;;;;;9.13;100.00;99973.31;5053787;28;20283;-79
2023/12/26 09:04:03;;;;;;;1.60;1.17;;;;;;;9.16;100.00;99980.88;5053496;28;20182;-77
2023/12/26 09:06:28;;;;;;;3.03;1.80;;;;;;;9.17;100.00;99978.22;5052439;28;20185;-74
2023/12/26 09:08:54;;;;;;;2.10;1.37;;;;;;;9.17;100.00;99978.22;5068157;28;20280;-70
2023/12/26 09:11:19;;;;;;;2.83;1.47;;;;;;;9.33;100.00;99977.44;5053199;28;20572;-73
2023/12/26 09:13:44;;;;;;;3.40;1.40;;;;;;;9.31;100.00;99986.94;5059559;28;20181;-71
2023/12/26 09:16:10;;;;;;;3.70;1.53;;;;;;;9.28;100.00;99999.94;5054333;28;20193;-72
2023/12/26 09:18:35;;;;;;;3.33;1.50;;;;;;;9.28;100.00;99998.22;5054035;28;20205;-71
2023/12/26 09:21:01;;;;;;;3.03;1.57;;;;;;;9.43;100.00;100008.63;5045734;28;20236;-72
2023/12/26 09:23:26;;;;;;;3.27;1.30;;;;;;;9.51;100.00;100022.72;5051946;28;20181;-71
2023/12/26 09:25:51;;;;;;;3.17;1.30;;;;;;;9.42;100.00;100018.03;5054193;28;20199;-71
2023/12/26 09:28:17;;;;;;;4.73;1.63;;;;;;;9.35;100.00;100019.25;5054438;28;20178;-72
2023/12/26 09:30:42;;;;;;;3.03;0.93;;;;;;;9.24;100.00;100018.97;5045658;28;20679;-70
2023/12/26 09:33:07;;;;;;;3.23;1.53;;;;;;;9.09;100.00;100016.28;5063453;28;20181;-71
2023/12/26 09:35:33;;;;;;;1.57;1.00;;;;;;;9.00;100.00;100032.94;5051542;28;20647;-71
2023/12/26 09:37:58;;;;;;;2.03;1.20;;;;;;;9.13;100.00;100047.72;5056518;28;20198;-72
2023/12/26 09:40:23;;;;;;;2.07;1.33;;;;;;;9.11;100.00;100047.81;5052610;28;20616;-72
2023/12/26 09:42:49;;;;;;;3.03;1.23;;;;;;;9.13;100.00;100055.41;5071029;28;20181;-71
2023/12/26 09:45:14;;;;;;;1.23;1.13;;;;;;;9.09;100.00;100053.94;5060497;28;20209;-71
2023/12/26 09:47:43;;;;;;;2.53;1.73;;;;;;;9.15;100.00;100056.19;5086495;28;20185;-73
2023/12/26 09:50:09;;;;;;;3.23;0.90;;;;;;;9.11;100.00;100055.50;5060898;28;20323;-71
2023/12/26 09:52:35;;;;;;;4.00;1.33;;;;;;;9.15;100.00;100059.59;5086124;28;20187;-72
2023/12/26 09:55:02;;;;;;;4.13;1.50;;;;;;;9.25;100.00;100062.50;5072042;28;20188;-70
2023/12/26 09:57:27;;;;;;;4.10;1.50;;;;;;;9.37;100.00;100063.66;5070098;28;20195;-70
2023/12/26 09:59:53;;;;;;;3.43;1.40;;;;;;;9.42;100.00;100068.56;5070587;28;20562;-70
2023/12/26 10:02:19;;;;;;;5.17;1.43;;;;;;;9.60;100.00;100075.34;5075327;28;20216;-70
2023/12/26 10:04:45;;;;;;;2.87;1.40;;;;;;;9.66;100.00;100069.91;5070519;28;20192;-71
2023/12/26 10:07:11;;;;;;;3.03;1.50;;;;;;;9.73;100.00;100074.72;5069515;28;20181;-71
2023/12/26 10:09:36;;;;;;;4.10;1.50;;;;;;;9.90;100.00;100081.53;5072409;28;20191;-71
2023/12/26 10:12:02;;;;;;;3.20;1.50;;;;;;;9.77;100.00;100084.72;5062437;28;20215;-70
2023/12/26 10:14:28;;;;;;;1.67;1.57;;;;;;;9.69;100.00;100086.88;5054290;28;20636;-71
2023/12/26 10:16:57;;;;;;;2.70;1.20;;;;;;;9.82;100.00;100092.22;5069547;28;20610;-71
2023/12/26 10:19:23;;;;;;;3.43;1.40;;;;;;;9.74;100.00;100099.50;5069949;28;20275;-71
2023/12/26 10:21:52;;;;;;;2.50;1.10;;;;;;;9.71;100.00;100105.59;5062965;28;20294;-71
2023/12/26 10:24:18;;;;;;;2.53;1.37;;;;;;;9.67;100.00;100104.09;5069616;28;20180;-72
2023/12/26 10:26:43;;;;;;;3.53;1.83;;;;;;;9.76;100.00;100105.38;5070608;28;20224;-71
2023/12/26 10:29:12;;;;;;;2.13;1.20;;;;;;;9.75;100.00;100101.13;5071782;28;20718;-70
2023/12/26 10:31:39;;;;;;;4.17;1.30;;;;;;;9.82;100.00;100121.31;5056336;28;20683;-69
2023/12/26 10:34:15;;;;;;;4.50;1.33;;;;;;;9.78;100.00;100121.53;5056560;28;20311;-75
2023/12/26 10:36:44;;;;;;;2.67;1.20;;;;;;;9.80;100.00;100122.31;5056699;28;20180;-72
2023/12/26 10:39:11;;;;;;;2.17;1.27;;;;;;;9.99;100.00;100125.56;5056996;28;20364;-71
2023/12/26 10:41:39;;;;;;;1.60;1.37;;;;;;;10.38;100.00;100126.19;5060713;28;20222;-70
2023/12/26 10:44:06;;;;;;;1.90;1.17;;;;;;;10.47;100.00;100138.53;5055306;28;20220;-71
2023/12/26 10:46:31;;;;;;;3.73;2.40;;;;;;;10.42;100.00;100130.25;5059057;28;20176;-70
2023/12/26 10:49:01;;;;;;;4.37;2.30;;;;;;;10.37;100.00;100123.66;5056528;28;20505;-69
2023/12/26 10:51:29;;;;;;;3.77;2.20;;;;;;;10.30;100.00;100126.53;5056355;28;20307;-69
2023/12/26 10:54:24;;;;;;;5.17;2.13;;;;;;;10.21;100.00;100131.31;5045987;28;20188;-70
2023/12/26 10:56:50;;;;;;;3.70;2.40;;;;;;;10.31;100.00;100129.94;5052731;28;20286;-72
2023/12/26 13:51:25;;;;;;;3.80;1.00;;;;;;;11.87;100.00;100153.94;5047112;28;20329;-77
2023/12/26 13:54:28;;;;;;;0.83;0.67;;;;;;;12.08;100.00;100154.44;5049804;28;20653;-78
2023/12/26 13:57:31;;;;;;;1.30;0.63;;;;;;;12.08;100.00;100162.16;5053533;28;20185;-75
2023/12/26 14:00:33;;;;;;;7.77;1.23;;;;;;;11.87;100.00;100154.78;5049710;28;20296;-79
2023/12/26 14:03:36;;;;;;;2.37;0.83;;;;;;;11.77;100.00;100162.22;5028385;28;20205;-59
2023/12/26 14:06:39;;;;;;;1.40;0.80;;;;;;;11.77;100.00;100166.53;5057813;28;20307;-75
2023/12/26 14:09:43;;;;;;;1.17;0.70;;;;;;;11.81;100.00;100177.47;5052154;28;20193;-75
2023/12/26 14:12:46;;;;;;;1.23;0.57;;;;;;;11.80;100.00;100171.50;5028048;28;20241;-71
2023/12/26 14:15:49;;;;;;;1.03;0.70;;;;;;;11.76;100.00;100172.63;5064166;28;20245;-69
2023/12/26 14:18:52;;;;;;;1.13;0.97;;;;;;;11.92;100.00;100186.25;5047289;28;20208;-75
2023/12/26 14:21:54;;;;;;;1.00;0.70;;;;;;;11.86;100.00;100186.63;5047121;28;20224;-74
2023/12/26 14:24:57;;;;;;;2.40;0.83;;;;;;;11.90;100.00;100177.78;5069002;28;20192;-75